Time;durP1;ratioP1;P1;durP2;ratioP2;P2;SDS_P1;SDS_P2;PMS_P1;PMS_P2;Temp;Humidity;BMP_temperature;BMP_pressure;BME280_temperature;BME280_humidity;BME280_pressure;Samples;Min_cycle;Max_cycle;Signal;HPM_P1;HPM_P2
2023/09/22 00:00:14;;;;;;;6.45;5.35;;;16.60;99.90;;;;;;5207283;28;20046;-75
2023/09/22 00:05:25;;;;;;;3.95;3.65;;;16.60;99.90;;;;;;5585842;22;20057;-79
2023/09/22 00:07:56;;;;;;;5.47;5.07;;;16.80;99.90;;;;;;5227702;28;20028;-74
2023/09/22 00:10:27;;;;;;;5.70;5.30;;;16.30;99.90;;;;;;5227726;28;20039;-73
2023/09/22 00:12:59;;;;;;;4.70;4.40;;;16.40;99.90;;;;;;5227848;28;20044;-79
2023/09/22 00:15:30;;;;;;;5.28;4.88;;;16.30;99.90;;;;;;5226336;28;20033;-74
2023/09/22 00:18:01;;;;;;;5.68;5.28;;;16.40;99.90;;;;;;5227369;28;20029;-73
2023/09/22 00:20:32;;;;;;;5.20;4.78;;;16.40;99.90;;;;;;5227085;28;20108;-74
2023/09/22 00:23:03;;;;;;;5.70;5.30;;;16.40;99.90;;;;;;5227139;28;20017;-73
2023/09/22 00:25:34;;;;;;;5.80;5.38;;;16.20;99.90;;;;;;5226087;28;20128;-74
2023/09/22 00:28:06;;;;;;;4.82;4.43;;;16.60;99.90;;;;;;5227001;28;20088;-73
2023/09/22 00:30:37;;;;;;;5.35;4.85;;;16.20;99.90;;;;;;5226844;28;20123;-73
2023/09/22 00:33:08;;;;;;;8.23;5.03;;;16.50;99.90;;;;;;5226925;28;20017;-79
2023/09/22 00:35:39;;;;;;;5.68;5.15;;;16.40;99.90;;;;;;5226492;28;20037;-78
2023/09/22 00:38:10;;;;;;;5.90;4.90;;;16.20;99.90;;;;;;5226701;28;20047;-75
2023/09/22 00:40:41;;;;;;;5.32;4.93;;;16.30;99.90;;;;;;5226939;28;20085;-78
2023/09/22 00:43:12;;;;;;;5.25;4.75;;;16.40;99.90;;;;;;5226414;28;20037;-79
2023/09/22 00:45:50;;;;;;;4.97;4.47;;;16.20;99.90;;;;;;5226966;28;20032;-78
2023/09/22 00:48:25;;;;;;;5.13;4.72;;;16.30;99.90;;;;;;5226846;28;20361;-76
2023/09/22 00:50:57;;;;;;;4.80;4.28;;;16.30;99.90;;;;;;5226158;28;20455;-79
2023/09/22 00:53:33;;;;;;;5.03;4.63;;;16.20;99.90;;;;;;5226764;28;20033;-79
2023/09/22 00:56:05;;;;;;;5.00;4.32;;;16.20;99.90;;;;;;5226887;28;20064;-79
2023/09/22 00:58:36;;;;;;;6.32;4.40;;;16.20;99.90;;;;;;5226555;28;20029;-77
2023/09/22 01:01:08;;;;;;;4.53;4.13;;;16.30;99.90;;;;;;5226645;28;20681;-78
2023/09/22 01:03:39;;;;;;;7.38;4.00;;;16.10;99.90;;;;;;5226448;28;20475;-77
2023/09/22 01:06:10;;;;;;;4.60;4.20;;;16.10;99.90;;;;;;5225193;28;20045;-79
2023/09/22 01:08:41;;;;;;;5.65;4.22;;;16.10;99.90;;;;;;5226499;28;20032;-74
2023/09/22 01:11:12;;;;;;;4.88;4.28;;;16.20;99.90;;;;;;5226510;28;20021;-76
2023/09/22 01:13:42;;;;;;;6.25;3.78;;;16.30;99.90;;;;;;5226580;28;20159;-78
2023/09/22 01:16:13;;;;;;;4.00;3.60;;;16.00;99.90;;;;;;5226245;28;20013;-77
2023/09/22 01:18:44;;;;;;;7.28;3.72;;;15.70;99.90;;;;;;5226337;28;20040;-74
2023/09/22 01:21:15;;;;;;;5.78;4.13;;;15.90;99.90;;;;;;5226723;28;20071;-74
2023/09/22 01:23:46;;;;;;;6.97;4.05;;;16.00;99.90;;;;;;5225463;28;20033;-78
2023/09/22 01:26:17;;;;;;;4.43;4.03;;;16.20;99.90;;;;;;5225166;28;20025;-79
2023/09/22 01:28:49;;;;;;;4.53;4.13;;;16.00;99.90;;;;;;5226380;28;20021;-79
2023/09/22 01:31:20;;;;;;;4.40;4.00;;;15.90;99.90;;;;;;5224876;28;20431;-76
2023/09/22 01:33:50;;;;;;;4.35;3.67;;;16.00;99.90;;;;;;5224489;28;20029;-78
2023/09/22 01:36:21;;;;;;;4.93;4.03;;;16.10;99.90;;;;;;5225711;28;20384;-73
2023/09/22 01:38:52;;;;;;;4.25;3.85;;;16.00;99.90;;;;;;5225259;28;20452;-76
2023/09/22 01:41:23;;;;;;;4.53;4.13;;;16.20;99.90;;;;;;5226358;28;20021;-72
2023/09/22 01:43:54;;;;;;;4.97;4.18;;;15.90;99.90;;;;;;5226277;28;20069;-77
2023/09/22 01:46:25;;;;;;;3.78;3.33;;;16.00;99.90;;;;;;5224725;28;20056;-79
2023/09/22 01:48:56;;;;;;;4.72;4.32;;;15.80;99.90;;;;;;5226020;28;20025;-73
2023/09/22 01:51:27;;;;;;;5.55;4.10;;;15.80;99.90;;;;;;5225731;28;20025;-77
2023/09/22 01:53:57;;;;;;;4.50;3.70;;;15.90;99.90;;;;;;5224808;28;20021;-80
2023/09/22 01:56:28;;;;;;;5.55;4.20;;;16.00;99.90;;;;;;5226189;28;20070;-76
2023/09/22 01:58:59;;;;;;;4.45;4.05;;;15.80;99.90;;;;;;5225878;28;20041;-77
2023/09/22 02:01:30;;;;;;;6.15;3.92;;;16.00;99.90;;;;;;5224496;28;20021;-78
2023/09/22 02:04:01;;;;;;;6.95;4.07;;;15.70;99.90;;;;;;5227813;28;20025;-74
2023/09/22 02:06:32;;;;;;;6.45;3.83;;;15.60;99.90;;;;;;5228736;28;20064;-79
2023/09/22 02:09:03;;;;;;;9.40;4.15;;;15.60;99.90;;;;;;5230024;28;20448;-79
2023/09/22 02:11:35;;;;;;;7.15;4.28;;;15.70;99.90;;;;;;5230093;28;20473;-74
2023/09/22 02:14:07;;;;;;;6.20;4.82;;;15.90;99.90;;;;;;5229961;28;20028;-80
2023/09/22 02:16:40;;;;;;;7.28;5.10;;;16.00;99.90;;;;;;5229854;28;20338;-78
2023/09/22 02:19:11;;;;;;;8.75;4.85;;;15.90;99.90;;;;;;5228389;28;20088;-78
2023/09/22 02:21:42;;;;;;;7.75;5.15;;;15.50;99.90;;;;;;5229798;28;20021;-79
2023/09/22 02:24:13;;;;;;;5.15;4.40;;;15.50;99.90;;;;;;5228509;28;20475;-75
2023/09/22 02:26:44;;;;;;;7.10;4.80;;;15.60;99.90;;;;;;5229710;28;20056;-74
2023/09/22 02:29:15;;;;;;;8.15;4.97;;;15.50;99.90;;;;;;5229696;28;20021;-73
2023/09/22 02:31:45;;;;;;;6.60;4.53;;;15.70;99.90;;;;;;5227497;28;20026;-79
2023/09/22 02:34:20;;;;;;;7.10;5.15;;;15.70;99.90;;;;;;5229172;28;20033;-76
2023/09/22 02:36:51;;;;;;;8.45;5.13;;;15.80;99.90;;;;;;5228461;28;20021;-79
2023/09/22 02:39:22;;;;;;;6.43;4.90;;;15.50;99.90;;;;;;5229732;28;20029;-80
2023/09/22 02:41:53;;;;;;;6.68;5.13;;;15.40;99.90;;;;;;5229664;28;20100;-78
2023/09/22 02:44:24;;;;;;;8.65;5.78;;;15.60;99.90;;;;;;5229456;28;20029;-78
2023/09/22 02:46:55;;;;;;;7.07;5.63;;;15.60;99.90;;;;;;5229330;28;20029;-76
2023/09/22 02:49:26;;;;;;;7.53;5.15;;;15.70;99.90;;;;;;5229326;28;20094;-80
2023/09/22 02:51:57;;;;;;;9.73;5.57;;;15.40;99.90;;;;;;5228002;28;20522;-80
2023/09/22 02:54:28;;;;;;;6.28;5.25;;;15.60;99.90;;;;;;5229327;28;20029;-74
2023/09/22 02:56:59;;;;;;;7.53;6.45;;;15.60;99.90;;;;;;5227925;28;20443;-74
2023/09/22 02:59:31;;;;;;;8.35;6.00;;;15.60;99.90;;;;;;5229016;28;20161;-79
2023/09/22 03:02:02;;;;;;;10.10;6.97;;;15.60;99.90;;;;;;5229011;28;20028;-77
2023/09/22 03:04:36;;;;;;;10.05;6.97;;;15.60;99.90;;;;;;5228489;28;20053;-76
2023/09/22 03:07:07;;;;;;;9.52;6.97;;;15.60;99.90;;;;;;5228896;28;20021;-74
2023/09/22 03:09:38;;;;;;;9.10;6.85;;;15.70;99.90;;;;;;5228673;28;20381;-78
2023/09/22 03:12:09;;;;;;;8.95;7.22;;;15.80;99.90;;;;;;5229130;28;20029;-78
2023/09/22 03:14:40;;;;;;;12.00;7.45;;;15.30;99.90;;;;;;5210694;28;20083;-74
2023/09/22 03:17:11;;;;;;;7.75;6.50;;;15.40;99.90;;;;;;5226290;28;20083;-77
2023/09/22 03:19:42;;;;;;;7.63;5.90;;;15.50;99.90;;;;;;5228693;28;20503;-76
2023/09/22 03:22:13;;;;;;;8.88;5.95;;;15.40;99.90;;;;;;5228488;28;20067;-74
2023/09/22 03:24:44;;;;;;;8.55;6.68;;;15.50;99.90;;;;;;5210913;28;20032;-75
2023/09/22 03:27:15;;;;;;;9.68;8.70;;;15.30;99.90;;;;;;5229747;28;20066;-76
2023/09/22 03:29:46;;;;;;;11.23;7.68;;;15.30;99.90;;;;;;5229738;28;20241;-76
2023/09/22 03:32:18;;;;;;;7.72;6.82;;;15.20;99.90;;;;;;5211907;28;20024;-76
2023/09/22 03:34:49;;;;;;;9.00;6.78;;;15.50;99.90;;;;;;5229601;28;20036;-76
2023/09/22 03:37:20;;;;;;;8.98;7.18;;;15.30;99.90;;;;;;5211842;28;20037;-76
2023/09/22 03:39:51;;;;;;;9.82;6.60;;;15.50;99.90;;;;;;5229591;28;20037;-77
2023/09/22 03:42:22;;;;;;;7.70;6.25;;;15.50;99.90;;;;;;5211971;28;20028;-76
2023/09/22 03:44:53;;;;;;;8.18;6.60;;;15.20;99.90;;;;;;5229906;28;20037;-76
2023/09/22 03:47:24;;;;;;;7.32;6.60;;;15.50;99.90;;;;;;5212205;28;20036;-75
2023/09/22 03:49:54;;;;;;;10.63;8.35;;;15.40;99.90;;;;;;5211773;28;20559;-76
2023/09/22 03:52:26;;;;;;;15.90;6.82;;;15.40;99.90;;;;;;5229780;28;20017;-76
2023/09/22 03:54:57;;;;;;;8.07;6.95;;;15.50;99.90;;;;;;5229853;28;20025;-76
2023/09/22 03:57:28;;;;;;;10.13;7.70;;;15.50;99.90;;;;;;5229462;28;20546;-76
2023/09/22 03:59:59;;;;;;;9.20;7.35;;;15.50;99.90;;;;;;5229728;28;20803;-76
2023/09/22 04:02:29;;;;;;;11.88;7.00;;;15.40;99.90;;;;;;5229534;28;20025;-76
2023/09/22 04:05:00;;;;;;;9.43;7.70;;;15.50;99.90;;;;;;5229100;28;20053;-76
2023/09/22 04:07:31;;;;;;;9.35;6.88;;;15.60;99.90;;;;;;5229368;28;20050;-76
2023/09/22 04:10:03;;;;;;;9.57;7.35;;;15.50;99.90;;;;;;5229279;28;20106;-76
2023/09/22 04:12:36;;;;;;;7.93;6.82;;;15.40;99.90;;;;;;5229412;28;20025;-76
2023/09/22 04:15:08;;;;;;;9.77;7.22;;;15.60;99.90;;;;;;5229276;28;20109;-76
2023/09/22 04:17:39;;;;;;;7.70;6.90;;;15.70;99.90;;;;;;5229516;28;20091;-76
2023/09/22 04:20:11;;;;;;;8.90;6.82;;;15.40;99.90;;;;;;5211219;28;20033;-76
2023/09/22 04:22:43;;;;;;;8.50;7.60;;;15.60;99.90;;;;;;5211211;28;20024;-76
2023/09/22 04:25:19;;;;;;;11.65;7.57;;;15.40;99.90;;;;;;5228788;28;20021;-76
2023/09/22 04:27:54;;;;;;;7.60;6.75;;;15.60;99.90;;;;;;5210901;28;20063;-76
2023/09/22 04:30:25;;;;;;;10.27;7.65;;;15.40;99.90;;;;;;5211159;28;20500;-76
2023/09/22 04:32:56;;;;;;;9.00;7.20;;;15.50;99.90;;;;;;5229054;28;20021;-76
2023/09/22 04:35:28;;;;;;;9.35;7.38;;;15.50;99.90;;;;;;5228695;28;20043;-76
2023/09/22 04:37:59;;;;;;;13.00;7.65;;;15.70;99.90;;;;;;5229163;28;20384;-76
2023/09/22 04:40:36;;;;;;;9.07;6.63;;;15.70;99.90;;;;;;5210894;28;20526;-76
2023/09/22 04:43:07;;;;;;;7.82;6.53;;;15.70;99.90;;;;;;5210854;28;20503;-76
2023/09/22 04:45:40;;;;;;;8.32;7.15;;;15.60;99.90;;;;;;5228689;28;20540;-76
2023/09/22 04:48:13;;;;;;;8.70;7.22;;;15.80;99.90;;;;;;5228736;28;20029;-76
2023/09/22 04:50:52;;;;;;;8.88;7.10;;;16.00;99.90;;;;;;5210525;28;20033;-76
2023/09/22 04:53:24;;;;;;;9.60;8.23;;;16.00;99.90;;;;;;5228850;28;20021;-76
2023/09/22 04:56:03;;;;;;;10.15;8.55;;;15.80;99.90;;;;;;5210596;28;20267;-76
2023/09/22 04:58:37;;;;;;;10.77;8.93;;;16.00;99.90;;;;;;5228551;28;20044;-76
2023/09/22 05:01:08;;;;;;;10.60;8.70;;;16.20;99.90;;;;;;5228525;28;20024;-76
2023/09/22 05:03:39;;;;;;;11.35;8.32;;;16.40;99.90;;;;;;5228281;28;20496;-76
2023/09/22 05:06:10;;;;;;;11.10;9.07;;;16.60;99.90;;;;;;5227996;28;20041;-76
2023/09/22 05:08:42;;;;;;;10.45;8.48;;;16.70;99.90;;;;;;5210200;28;20568;-76
2023/09/22 05:11:13;;;;;;;15.85;9.63;;;16.60;99.90;;;;;;5227968;28;20090;-76
2023/09/22 05:13:44;;;;;;;11.48;10.27;;;16.90;99.90;;;;;;5209928;28;20033;-76
2023/09/22 05:16:15;;;;;;;14.07;10.63;;;17.10;99.90;;;;;;5228035;28;20495;-77
2023/09/22 05:18:46;;;;;;;14.98;9.93;;;16.80;99.90;;;;;;5210294;28;20439;-76
2023/09/22 05:21:18;;;;;;;13.77;10.57;;;16.90;99.90;;;;;;5227772;28;20112;-76
2023/09/22 05:23:49;;;;;;;12.45;10.38;;;17.00;99.90;;;;;;5210274;28;20032;-76
2023/09/22 05:26:20;;;;;;;15.38;10.70;;;17.30;99.90;;;;;;5227957;28;20147;-77
2023/09/22 05:28:51;;;;;;;14.80;11.25;;;17.30;99.90;;;;;;5228234;28;20173;-76
2023/09/22 05:31:22;;;;;;;11.95;9.68;;;17.30;99.90;;;;;;5209962;28;20119;-77
2023/09/22 05:33:53;;;;;;;12.13;10.43;;;17.40;99.90;;;;;;5227891;28;20472;-76
2023/09/22 05:36:24;;;;;;;12.80;9.38;;;17.60;99.90;;;;;;5227671;28;20201;-76
2023/09/22 05:38:55;;;;;;;13.63;10.90;;;17.80;99.90;;;;;;5226689;28;20041;-76
2023/09/22 05:41:28;;;;;;;14.68;10.38;;;18.00;99.90;;;;;;5227780;28;20056;-76
2023/09/22 05:43:59;;;;;;;11.63;10.10;;;18.30;99.90;;;;;;5227918;28;20047;-76
2023/09/22 05:46:31;;;;;;;11.02;9.35;;;18.10;99.90;;;;;;5227661;28;20477;-77
2023/09/22 05:49:04;;;;;;;13.20;9.73;;;18.20;99.90;;;;;;5227782;28;20021;-76
2023/09/22 05:51:36;;;;;;;12.88;11.50;;;18.40;99.90;;;;;;5209685;28;20473;-76
2023/09/22 05:54:07;;;;;;;13.40;9.38;;;18.50;99.90;;;;;;5227552;28;20017;-76
2023/09/22 05:56:40;;;;;;;15.80;10.02;;;18.50;99.90;;;;;;5209343;28;20029;-76
2023/09/22 05:59:10;;;;;;;10.70;7.32;;;18.60;99.90;;;;;;5227502;28;20435;-76
2023/09/22 06:01:41;;;;;;;12.88;10.20;;;18.50;99.90;;;;;;5227475;28;20029;-76
2023/09/22 06:04:13;;;;;;;12.73;11.43;;;19.00;99.90;;;;;;5209196;28;20049;-76
2023/09/22 06:06:43;;;;;;;12.63;10.65;;;19.10;99.90;;;;;;5227456;28;20116;-76
2023/09/22 06:09:14;;;;;;;12.40;11.05;;;19.00;99.90;;;;;;5227485;28;20099;-76
2023/09/22 06:11:46;;;;;;;12.48;11.02;;;19.20;99.90;;;;;;5209303;28;20095;-76
2023/09/22 06:14:17;;;;;;;12.45;11.23;;;19.40;99.90;;;;;;5227476;28;20369;-76
2023/09/22 06:16:49;;;;;;;11.48;9.57;;;19.30;99.90;;;;;;5227368;28;20029;-77
2023/09/22 06:19:20;;;;;;;11.57;7.28;;;19.60;99.90;;;;;;5227346;28;20060;-76
2023/09/22 06:21:50;;;;;;;9.98;6.97;;;19.70;99.90;;;;;;5227265;28;20017;-76
2023/09/22 06:24:21;;;;;;;13.50;12.23;;;19.90;99.90;;;;;;5209619;28;20369;-76
2023/09/22 06:26:52;;;;;;;12.30;10.30;;;20.10;99.90;;;;;;5209084;28;20404;-76
2023/09/22 06:29:23;;;;;;;11.85;7.43;;;20.20;99.90;;;;;;5226835;28;20387;-76
2023/09/22 06:31:54;;;;;;;10.27;8.02;;;20.50;99.90;;;;;;5227132;28;20117;-77
2023/09/22 06:34:25;;;;;;;12.00;7.72;;;20.60;99.90;;;;;;5226961;28;20037;-76
2023/09/22 06:36:56;;;;;;;11.00;8.73;;;20.60;99.90;;;;;;5227128;28;20086;-76
2023/09/22 06:39:27;;;;;;;11.23;9.98;;;20.80;99.90;;;;;;5227409;28;20063;-76
2023/09/22 06:41:57;;;;;;;14.27;11.13;;;20.70;99.90;;;;;;5227269;28;20022;-76
2023/09/22 06:44:28;;;;;;;12.15;9.75;;;21.10;99.90;;;;;;5227017;28;20082;-77
2023/09/22 06:46:59;;;;;;;11.25;9.88;;;21.20;99.90;;;;;;5227151;28;20100;-76
2023/09/22 06:49:32;;;;;;;12.10;10.73;;;21.30;99.90;;;;;;5228509;28;20033;-76
2023/09/22 06:52:03;;;;;;;14.77;11.27;;;21.50;99.90;;;;;;5231135;28;20066;-76
2023/09/22 06:54:34;;;;;;;13.60;10.13;;;21.70;99.90;;;;;;5213172;28;20834;-76
2023/09/22 06:57:05;;;;;;;13.43;10.27;;;21.80;99.90;;;;;;5230706;28;20017;-76
2023/09/22 06:59:35;;;;;;;14.63;10.68;;;22.00;99.90;;;;;;5230795;28;20025;-77
2023/09/22 07:02:08;;;;;;;12.30;10.98;;;22.30;99.90;;;;;;5230820;28;20021;-76
2023/09/22 07:04:40;;;;;;;10.93;9.95;;;22.30;99.90;;;;;;5212616;28;20090;-77
2023/09/22 07:07:11;;;;;;;14.55;9.25;;;22.40;99.90;;;;;;5230716;28;20021;-76
2023/09/22 07:09:45;;;;;;;16.50;8.95;;;22.50;99.90;;;;;;5230373;28;20041;-77
2023/09/22 07:12:16;;;;;;;11.05;8.02;;;22.70;99.90;;;;;;5230458;28;20060;-76
2023/09/22 07:14:47;;;;;;;10.77;9.77;;;22.80;99.90;;;;;;5230258;28;20060;-76
2023/09/22 07:17:18;;;;;;;12.13;8.90;;;22.70;99.90;;;;;;5230456;28;20033;-76
2023/09/22 07:19:48;;;;;;;10.00;8.52;;;23.00;99.90;;;;;;5212501;28;20692;-76
2023/09/22 07:22:19;;;;;;;11.40;7.80;;;23.10;99.90;;;;;;5212465;28;20025;-76
2023/09/22 07:24:53;;;;;;;11.07;7.85;;;23.20;99.90;;;;;;5230226;28;20029;-76
2023/09/22 07:27:24;;;;;;;8.90;7.78;;;23.40;99.90;;;;;;5212418;28;20031;-76
2023/09/22 07:29:55;;;;;;;24.52;8.52;;;23.50;99.90;;;;;;5230085;28;20025;-76
2023/09/22 07:32:26;;;;;;;13.23;9.38;;;23.60;99.90;;;;;;5229734;28;20104;-77
2023/09/22 07:34:57;;;;;;;10.32;9.38;;;23.70;99.90;;;;;;5212054;28;20055;-77
2023/09/22 07:37:30;;;;;;;9.75;8.95;;;23.80;99.90;;;;;;5229830;28;20056;-77
2023/09/22 07:40:04;;;;;;;10.32;8.98;;;23.80;99.90;;;;;;5230234;28;20372;-77
2023/09/22 07:42:37;;;;;;;11.10;8.65;;;24.00;99.90;;;;;;5212034;28;20494;-77
2023/09/22 07:45:08;;;;;;;8.07;7.25;;;24.30;99.90;;;;;;5212023;28;20372;-76
2023/09/22 07:47:39;;;;;;;7.93;7.13;;;24.30;99.90;;;;;;5229771;28;20640;-77
2023/09/22 07:50:11;;;;;;;7.93;6.00;;;24.20;99.90;;;;;;5229699;28;20021;-77
2023/09/22 07:52:43;;;;;;;7.70;6.88;;;24.40;99.90;;;;;;5229737;28;20028;-77
2023/09/22 07:55:14;;;;;;;8.02;6.72;;;24.60;99.90;;;;;;5229666;28;20025;-76
2023/09/22 07:57:48;;;;;;;7.78;6.45;;;24.60;99.90;;;;;;5211841;28;20380;-77
2023/09/22 08:00:19;;;;;;;7.30;6.53;;;24.80;99.90;;;;;;5228989;28;20070;-77
2023/09/22 08:02:50;;;;;;;6.60;5.90;;;24.90;99.90;;;;;;5229128;28;20056;-77
2023/09/22 08:05:21;;;;;;;9.65;6.20;;;24.90;99.90;;;;;;5210905;28;20452;-77
2023/09/22 08:07:53;;;;;;;9.80;5.75;;;25.10;99.90;;;;;;5211273;28;20025;-77
2023/09/22 08:10:24;;;;;;;8.35;6.40;;;25.20;99.90;;;;;;5229252;28;20040;-77
2023/09/22 08:12:55;;;;;;;9.80;6.47;;;25.20;99.90;;;;;;5229340;28;20064;-77
2023/09/22 08:15:27;;;;;;;9.93;5.95;;;25.20;99.90;;;;;;5229412;28;20075;-77
2023/09/22 08:17:58;;;;;;;9.32;5.97;;;25.50;99.90;;;;;;5211163;28;20119;-77
2023/09/22 08:20:29;;;;;;;7.22;5.20;;;25.60;99.90;;;;;;5229162;28;20112;-77
2023/09/22 08:23:00;;;;;;;7.93;6.53;;;25.80;99.90;;;;;;5211354;28;20516;-77
2023/09/22 08:25:31;;;;;;;7.57;6.70;;;25.80;99.90;;;;;;5228563;28;20035;-77
2023/09/22 08:28:02;;;;;;;11.10;6.22;;;25.90;99.90;;;;;;5228836;28;20473;-77
2023/09/22 08:30:33;;;;;;;7.63;6.88;;;26.00;99.90;;;;;;5229046;28;20021;-77
2023/09/22 08:33:04;;;;;;;8.43;5.93;;;26.20;99.90;;;;;;5228238;28;20029;-77
2023/09/22 08:35:37;;;;;;;7.78;5.45;;;26.10;99.90;;;;;;5210798;28;20051;-77
2023/09/22 08:38:08;;;;;;;8.52;5.88;;;26.40;99.90;;;;;;5228605;28;20465;-77
2023/09/22 08:40:39;;;;;;;10.20;5.28;;;26.60;99.90;;;;;;5228735;28;20031;-77
2023/09/22 08:43:11;;;;;;;7.53;6.43;;;26.60;99.90;;;;;;5210869;28;20028;-77
2023/09/22 08:45:42;;;;;;;9.88;7.55;;;26.70;99.90;;;;;;5228707;28;20104;-77
2023/09/22 08:48:13;;;;;;;7.68;6.93;;;26.60;99.90;;;;;;5228381;28;20032;-77
2023/09/22 08:50:45;;;;;;;7.60;6.35;;;26.80;99.90;;;;;;5210802;28;20029;-77
2023/09/22 08:53:17;;;;;;;12.60;6.90;;;27.00;99.90;;;;;;5210726;28;20056;-77
2023/09/22 08:55:51;;;;;;;11.00;7.10;;;27.10;99.90;;;;;;5228411;28;20100;-77
2023/09/22 08:58:21;;;;;;;7.22;6.20;;;27.30;99.90;;;;;;5228251;28;20408;-77
2023/09/22 09:00:53;;;;;;;6.70;6.00;;;27.30;99.90;;;;;;5227914;28;20033;-77
2023/09/22 09:03:26;;;;;;;9.05;8.18;;;27.50;99.90;;;;;;5210125;28;20119;-77
2023/09/22 09:06:08;;;;;;;9.35;7.68;;;27.50;99.90;;;;;;5227827;28;20041;-77
2023/09/22 09:08:39;;;;;;;11.80;6.55;;;27.50;99.90;;;;;;5227980;28;20052;-77
2023/09/22 09:11:10;;;;;;;11.98;7.25;;;27.50;99.90;;;;;;5227891;28;20478;-77
2023/09/22 09:13:43;;;;;;;9.30;7.13;;;27.60;99.90;;;;;;5209811;28;20032;-77
2023/09/22 09:16:30;;;;;;;11.32;7.70;;;27.50;99.90;;;;;;5227957;28;20021;-77
2023/09/22 09:19:14;;;;;;;9.85;8.73;;;27.70;99.90;;;;;;5227856;28;20377;-77
2023/09/22 09:22:12;;;;;;;15.68;14.07;;;27.80;99.90;;;;;;5227915;28;20017;-77
2023/09/22 09:24:44;;;;;;;9.18;6.97;;;28.00;99.90;;;;;;5210073;28;20499;-77
2023/09/22 09:27:21;;;;;;;15.27;13.68;;;28.10;99.90;;;;;;5227889;28;20419;-77
2023/09/22 09:29:53;;;;;;;13.80;12.52;;;28.00;99.90;;;;;;5227579;28;20128;-77
2023/09/22 09:32:29;;;;;;;11.50;9.25;;;28.20;99.90;;;;;;5210026;28;20039;-77
2023/09/22 09:35:00;;;;;;;11.95;7.60;;;28.40;99.90;;;;;;5227458;28;20028;-77
2023/09/22 09:37:31;;;;;;;9.27;7.65;;;28.10;99.90;;;;;;5227465;28;20028;-77
2023/09/22 09:40:03;;;;;;;9.32;6.93;;;28.30;99.90;;;;;;5227815;28;20078;-77
2023/09/22 09:42:39;;;;;;;10.93;6.88;;;28.30;99.90;;;;;;5209524;28;20107;-77
2023/09/22 09:45:13;;;;;;;10.40;6.22;;;28.70;99.90;;;;;;5227572;28;20021;-77
2023/09/22 09:47:47;;;;;;;10.88;7.22;;;28.60;99.90;;;;;;5227460;28;20071;-77
2023/09/22 09:50:20;;;;;;;9.80;6.32;;;28.80;99.90;;;;;;5227339;28;20516;-77
2023/09/22 09:52:51;;;;;;;6.18;5.55;;;28.80;99.90;;;;;;5227358;28;20079;-77
2023/09/22 09:55:24;;;;;;;10.52;6.07;;;28.70;99.90;;;;;;5227484;28;20021;-77
2023/09/22 09:57:57;;;;;;;9.45;5.93;;;28.70;99.90;;;;;;5227014;28;20072;-77
2023/09/22 10:00:28;;;;;;;10.68;5.85;;;28.80;99.90;;;;;;5209190;28;20502;-78
2023/09/22 10:03:01;;;;;;;8.68;5.90;;;29.10;99.90;;;;;;5227095;28;20087;-77
2023/09/22 10:05:33;;;;;;;9.00;5.35;;;29.10;99.90;;;;;;5227008;28;20049;-77
2023/09/22 10:08:06;;;;;;;12.57;5.95;;;29.10;99.90;;;;;;5226951;28;20033;-77
2023/09/22 10:10:38;;;;;;;9.55;5.85;;;29.00;99.90;;;;;;5227121;28;20021;-77
2023/09/22 10:13:09;;;;;;;8.43;5.03;;;29.20;99.90;;;;;;5227005;28;20029;-77
2023/09/22 10:15:51;;;;;;;8.55;6.82;;;29.20;99.90;;;;;;5227210;28;20021;-77
2023/09/22 10:18:45;;;;;;;7.10;6.05;;;29.40;99.90;;;;;;5227060;28;20098;-77
2023/09/22 10:21:37;;;;;;;9.88;6.47;;;29.70;99.90;;;;;;5209217;28;20078;-77
2023/09/22 10:24:20;;;;;;;8.70;5.88;;;29.40;99.90;;;;;;5227822;28;20226;-77
2023/09/22 10:26:57;;;;;;;9.93;5.88;;;29.40;99.90;;;;;;5231090;28;20022;-77
2023/09/22 10:29:36;;;;;;;8.82;6.15;;;29.60;99.90;;;;;;5231109;28;20025;-77
2023/09/22 10:35:05;;;;;;;9.35;5.07;;;30.00;99.90;;;;;;5230704;28;20037;-77
2023/09/22 10:37:37;;;;;;;8.30;5.43;;;29.90;99.90;;;;;;5231049;28;20068;-77
2023/09/22 10:40:11;;;;;;;12.20;5.75;;;29.70;99.90;;;;;;5230879;28;20115;-77
2023/09/22 10:42:48;;;;;;;11.52;5.60;;;29.80;99.90;;;;;;5212874;28;20465;-77
2023/09/22 10:45:23;;;;;;;9.98;5.25;;;29.90;99.90;;;;;;5212711;28;20032;-77
2023/09/22 10:47:58;;;;;;;10.80;5.95;;;30.10;99.90;;;;;;5230573;28;20021;-77
2023/09/22 10:50:30;;;;;;;8.35;5.85;;;30.10;99.90;;;;;;5230112;28;20845;-77
2023/09/22 10:53:04;;;;;;;14.20;5.82;;;30.30;99.90;;;;;;5212316;28;20025;-77
2023/09/22 10:55:40;;;;;;;7.25;5.40;;;30.10;99.90;;;;;;5229844;28;20051;-77
2023/09/22 10:58:18;;;;;;;9.13;5.93;;;30.20;99.90;;;;;;5230036;28;20033;-77
2023/09/22 11:01:00;;;;;;;10.70;5.97;;;30.00;99.90;;;;;;5230187;28;20056;-77
2023/09/22 11:03:38;;;;;;;8.45;6.10;;;30.20;99.90;;;;;;5212178;28;20060;-77
2023/09/22 11:06:10;;;;;;;8.82;5.63;;;29.90;99.90;;;;;;5230239;28;20053;-77
2023/09/22 11:08:50;;;;;;;5.90;5.20;;;30.10;99.90;;;;;;5230143;28;20029;-77
2023/09/22 11:11:21;;;;;;;7.05;5.10;;;30.40;99.90;;;;;;5230136;28;20021;-76
2023/09/22 11:13:56;;;;;;;11.05;4.93;;;30.70;99.90;;;;;;5212085;28;20032;-76
2023/09/22 11:16:29;;;;;;;9.77;4.80;;;30.30;99.90;;;;;;5229989;28;20021;-76
2023/09/22 11:19:08;;;;;;;6.90;4.93;;;30.30;99.90;;;;;;5230119;28;20033;-77
2023/09/22 11:21:40;;;;;;;5.90;4.63;;;30.50;99.90;;;;;;5211919;28;20366;-77
2023/09/22 11:24:12;;;;;;;7.70;5.05;;;30.70;99.90;;;;;;5230037;28;20440;-77
2023/09/22 11:26:44;;;;;;;6.68;4.82;;;30.60;99.90;;;;;;5229743;28;20086;-76
2023/09/22 11:29:17;;;;;;;7.55;4.68;;;30.50;99.90;;;;;;5230103;28;20524;-76
2023/09/22 11:31:49;;;;;;;9.18;5.13;;;30.50;99.90;;;;;;5230013;28;20029;-77
2023/09/22 11:34:22;;;;;;;7.45;4.78;;;30.50;99.90;;;;;;5230046;28;20386;-77
2023/09/22 11:36:55;;;;;;;7.45;5.00;;;30.60;99.90;;;;;;5211874;28;20536;-76
2023/09/22 11:39:27;;;;;;;8.82;5.25;;;30.60;99.90;;;;;;5229677;28;20075;-76
2023/09/22 11:41:58;;;;;;;11.55;5.10;;;30.80;99.90;;;;;;5229746;28;20372;-77
2023/09/22 11:44:29;;;;;;;7.90;4.68;;;31.00;99.90;;;;;;5229491;28;20025;-77
2023/09/22 11:47:02;;;;;;;8.63;4.10;;;31.00;99.90;;;;;;5229239;28;20538;-77
2023/09/22 11:49:36;;;;;;;10.68;4.28;;;31.20;99.90;;;;;;5229189;28;20029;-77
2023/09/22 11:52:07;;;;;;;7.45;4.70;;;31.20;99.90;;;;;;5228990;28;20048;-77
2023/09/22 11:54:38;;;;;;;6.63;4.50;;;31.20;99.90;;;;;;5229282;28;20024;-77
2023/09/22 11:57:09;;;;;;;5.82;4.38;;;31.00;99.90;;;;;;5229174;28;20028;-77
2023/09/22 11:59:40;;;;;;;7.03;4.55;;;30.90;99.90;;;;;;5211251;28;20032;-77
2023/09/22 12:02:11;;;;;;;8.63;4.25;;;30.90;99.90;;;;;;5228980;28;20017;-77
2023/09/22 12:04:43;;;;;;;7.10;4.13;;;30.80;99.90;;;;;;5210701;28;20060;-76
2023/09/22 12:07:13;;;;;;;8.45;4.45;;;30.90;99.90;;;;;;5229107;28;20480;-77
2023/09/22 12:09:44;;;;;;;8.98;4.45;;;30.80;99.90;;;;;;5228618;28;20063;-76
2023/09/22 12:12:16;;;;;;;8.48;5.30;;;30.90;99.90;;;;;;5228833;28;20078;-76
2023/09/22 12:14:46;;;;;;;7.95;4.55;;;31.30;99.90;;;;;;5228766;28;20025;-76
2023/09/22 12:17:17;;;;;;;6.22;4.80;;;31.30;99.90;;;;;;5228368;28;20025;-77
2023/09/22 12:19:48;;;;;;;11.35;5.20;;;31.10;99.90;;;;;;5228753;28;20471;-76
2023/09/22 12:22:19;;;;;;;8.55;5.00;;;31.30;99.90;;;;;;5228469;28;20025;-77
2023/09/22 12:24:50;;;;;;;7.53;4.78;;;31.10;99.90;;;;;;5228222;28;20111;-77
2023/09/22 12:27:21;;;;;;;6.68;4.90;;;31.10;99.90;;;;;;5228537;28;20021;-77
2023/09/22 12:29:52;;;;;;;8.02;5.20;;;30.80;99.90;;;;;;5228360;28;20029;-77
2023/09/22 12:32:23;;;;;;;7.03;5.13;;;31.00;99.90;;;;;;5228821;28;20021;-77
2023/09/22 12:34:54;;;;;;;7.88;4.95;;;31.00;99.90;;;;;;5228165;28;20032;-76
2023/09/22 12:37:25;;;;;;;8.25;4.75;;;31.20;99.90;;;;;;5228128;28;20074;-77
2023/09/22 12:39:56;;;;;;;40.47;5.55;;;31.40;99.90;;;;;;5210527;28;20033;-77
2023/09/22 12:42:27;;;;;;;10.02;4.10;;;31.30;99.90;;;;;;5228182;28;20028;-77
2023/09/22 12:44:59;;;;;;;9.68;4.88;;;31.20;99.90;;;;;;5209927;28;20481;-77
2023/09/22 12:47:30;;;;;;;12.85;4.82;;;31.10;99.90;;;;;;5209833;28;20063;-78
2023/09/22 12:50:04;;;;;;;7.05;4.07;;;31.10;99.90;;;;;;5227586;28;20032;-76
2023/09/22 12:52:37;;;;;;;8.82;3.85;;;31.10;99.90;;;;;;5228469;28;20017;-77
2023/09/22 12:55:10;;;;;;;6.65;4.60;;;31.00;99.90;;;;;;5228077;28;20025;-77
2023/09/22 12:57:41;;;;;;;8.50;4.65;;;31.10;99.90;;;;;;5227980;28;20492;-77
2023/09/22 13:00:15;;;;;;;7.10;3.95;;;31.00;99.90;;;;;;5228262;28;20036;-77
2023/09/22 13:02:45;;;;;;;6.35;4.85;;;30.70;99.90;;;;;;5227912;28;20025;-77
2023/09/22 13:05:16;;;;;;;7.45;4.50;;;30.80;99.90;;;;;;5210021;28;20056;-77
2023/09/22 13:07:47;;;;;;;9.55;4.88;;;31.10;99.90;;;;;;5227760;28;20074;-77
2023/09/22 13:10:18;;;;;;;8.13;4.78;;;30.90;99.90;;;;;;5209753;28;20476;-78
2023/09/22 13:12:49;;;;;;;8.70;4.70;;;30.70;99.90;;;;;;5227949;28;20021;-77